createdAt,value
2018-07-31T00:00:41.728Z,8.57
2018-07-31T00:03:13.768Z,8.57
2018-07-31T00:05:45.535Z,8.40
2018-07-31T00:08:17.503Z,8.87
2018-07-31T00:10:49.573Z,9.17
2018-07-31T00:13:21.368Z,8.73
2018-07-31T00:15:53.635Z,8.03
2018-07-31T00:18:26.107Z,8.70
2018-07-31T00:24:06.144Z,8.07
2018-07-31T00:26:38.277Z,8.13
2018-07-31T00:29:10.463Z,7.73
2018-07-31T00:31:42.812Z,9.33
2018-07-31T00:34:14.972Z,8.97
2018-07-31T00:36:46.973Z,8.30
2018-07-31T00:39:20.103Z,8.27
2018-07-31T00:41:52.643Z,8.83
2018-07-31T00:44:25.322Z,9.27
2018-07-31T00:46:57.426Z,8.23
2018-07-31T00:49:29.592Z,9.00
2018-07-31T00:52:01.344Z,8.70
2018-07-31T00:54:33.377Z,9.20
2018-07-31T00:57:05.946Z,9.13
2018-07-31T00:59:38.124Z,9.40
2018-07-31T01:02:09.952Z,9.27
2018-07-31T01:04:42.341Z,8.97
2018-07-31T01:07:14.293Z,9.73
2018-07-31T01:09:46.270Z,8.70
2018-07-31T01:12:18.285Z,9.43
2018-07-31T01:14:50.402Z,9.40
2018-07-31T01:17:22.279Z,10.27
2018-07-31T01:19:54.527Z,9.80
2018-07-31T01:22:26.433Z,10.30
2018-07-31T01:24:59.500Z,10.33
2018-07-31T01:27:31.587Z,9.77
2018-07-31T01:30:03.633Z,9.90
2018-07-31T01:32:36.082Z,10.77
2018-07-31T01:35:08.444Z,9.77
2018-07-31T01:37:40.455Z,9.90
2018-07-31T01:40:12.367Z,9.77
2018-07-31T01:42:44.197Z,9.60
2018-07-31T01:45:16.258Z,8.50
2018-07-31T01:47:51.080Z,9.90
2018-07-31T01:50:23.179Z,9.33
2018-07-31T01:52:55.422Z,9.40
2018-07-31T01:55:27.201Z,9.63
2018-07-31T01:57:59.177Z,9.93
2018-07-31T02:00:31.949Z,9.93
2018-07-31T02:03:04.047Z,9.10
2018-07-31T02:05:35.154Z,9.93
2018-07-31T02:08:07.235Z,10.60
2018-07-31T02:10:39.275Z,10.90
2018-07-31T02:13:11.686Z,9.43
2018-07-31T02:15:43.382Z,10.07
2018-07-31T02:18:15.234Z,10.50
2018-07-31T02:20:47.458Z,9.77
2018-07-31T02:23:19.298Z,10.43
2018-07-31T02:25:52.238Z,10.87
2018-07-31T02:28:23.932Z,10.20
2018-07-31T02:30:56.284Z,11.13
2018-07-31T02:33:28.436Z,11.00
2018-07-31T02:36:00.302Z,10.53
2018-07-31T02:38:32.351Z,10.30
2018-07-31T02:41:04.430Z,14.03
2018-07-31T02:43:36.356Z,16.53
2018-07-31T02:46:08.255Z,10.27
2018-07-31T02:48:40.706Z,9.90
2018-07-31T02:51:13.100Z,8.87
2018-07-31T02:53:45.863Z,10.00
2018-07-31T02:56:19.529Z,9.57
2018-07-31T02:58:51.426Z,9.37
2018-07-31T03:01:23.301Z,9.97
2018-07-31T03:03:54.841Z,9.80
2018-07-31T03:06:27.135Z,10.27
2018-07-31T03:08:59.245Z,9.07
2018-07-31T03:11:31.379Z,9.27
2018-07-31T03:14:04.196Z,9.10
2018-07-31T03:16:35.928Z,10.20
2018-07-31T03:19:07.930Z,9.93
2018-07-31T03:21:39.886Z,10.20
2018-07-31T03:24:12.114Z,10.07
2018-07-31T03:26:44.076Z,9.77
2018-07-31T03:29:16.239Z,9.30
2018-07-31T03:31:48.302Z,9.70
2018-07-31T03:34:20.459Z,10.10
2018-07-31T03:36:52.241Z,10.20
2018-07-31T03:39:24.292Z,11.20
2018-07-31T03:41:56.853Z,11.13
2018-07-31T03:44:28.714Z,10.67
2018-07-31T03:47:00.578Z,10.70
2018-07-31T03:49:33.297Z,10.67
2018-07-31T03:52:05.017Z,10.00
2018-07-31T03:54:36.965Z,9.87
2018-07-31T03:57:08.713Z,9.63
2018-07-31T03:59:40.639Z,9.93
2018-07-31T04:02:12.855Z,10.00
2018-07-31T04:04:45.074Z,9.93
2018-07-31T04:07:16.892Z,9.83
2018-07-31T04:09:49.200Z,9.27
2018-07-31T04:12:20.876Z,9.70
2018-07-31T04:14:52.665Z,9.97
2018-07-31T04:17:25.283Z,9.57
2018-07-31T04:19:57.074Z,9.17
2018-07-31T04:22:29.044Z,10.20
2018-07-31T04:25:01.751Z,10.30
2018-07-31T04:27:34.043Z,9.97
2018-07-31T04:30:06.115Z,8.87
2018-07-31T04:32:39.186Z,11.83
2018-07-31T04:35:11.082Z,10.20
2018-07-31T04:37:43.026Z,10.87
2018-07-31T04:40:15.080Z,11.07
2018-07-31T04:42:47.044Z,10.83
2018-07-31T04:45:18.970Z,9.47
2018-07-31T04:47:50.890Z,9.67
2018-07-31T04:50:22.736Z,9.40
2018-07-31T04:52:55.114Z,10.33
2018-07-31T04:55:27.095Z,11.07
2018-07-31T04:57:59.170Z,10.73
2018-07-31T05:00:31.308Z,10.10
2018-07-31T05:03:03.415Z,9.80
2018-07-31T05:05:36.034Z,9.90
2018-07-31T05:08:08.236Z,11.50
2018-07-31T05:10:40.542Z,11.57
2018-07-31T05:13:12.085Z,11.77
2018-07-31T05:15:44.357Z,11.07
2018-07-31T05:18:16.397Z,12.00
2018-07-31T05:20:48.355Z,13.40
2018-07-31T05:23:20.132Z,12.33
2018-07-31T05:25:51.779Z,12.90
2018-07-31T05:28:23.974Z,12.20
2018-07-31T05:30:55.825Z,11.90
2018-07-31T05:33:28.794Z,12.53
2018-07-31T05:36:00.854Z,11.53
2018-07-31T05:38:32.702Z,11.87
2018-07-31T05:41:04.522Z,11.07
2018-07-31T05:43:36.684Z,12.83
2018-07-31T05:46:09.264Z,11.13
2018-07-31T05:48:41.419Z,13.40
2018-07-31T05:51:13.342Z,14.17
2018-07-31T05:53:44.826Z,11.57
2018-07-31T05:56:16.834Z,14.00
2018-07-31T05:58:49.207Z,14.30
2018-07-31T06:01:21.392Z,14.40
2018-07-31T06:03:53.238Z,13.47
2018-07-31T06:06:24.095Z,11.07
2018-07-31T06:08:54.974Z,12.93
2018-07-31T06:11:25.924Z,14.63
2018-07-31T06:13:56.867Z,14.80
2018-07-31T06:16:27.809Z,12.70
2018-07-31T06:18:58.892Z,14.93
2018-07-31T06:21:29.801Z,13.27
2018-07-31T06:24:00.766Z,12.20
2018-07-31T06:26:32.388Z,12.43
2018-07-31T06:29:03.361Z,12.27
2018-07-31T06:31:34.371Z,12.40
2018-07-31T06:34:05.572Z,13.03
2018-07-31T06:36:36.731Z,12.07
2018-07-31T06:39:10.423Z,11.60
2018-07-31T06:41:41.280Z,11.93
2018-07-31T06:44:12.164Z,13.10
2018-07-31T06:46:43.078Z,11.17
2018-07-31T06:49:14.044Z,11.93
2018-07-31T06:51:44.393Z,12.10
2018-07-31T06:54:15.355Z,11.87
2018-07-31T06:56:46.297Z,10.37
2018-07-31T06:59:17.157Z,9.80
2018-07-31T07:01:48.178Z,11.83
2018-07-31T07:04:19.135Z,11.70
2018-07-31T07:06:50.168Z,10.77
2018-07-31T07:09:21.215Z,10.23
2018-07-31T07:11:52.132Z,10.90
2018-07-31T07:14:22.971Z,11.10
2018-07-31T07:16:53.851Z,11.63
2018-07-31T07:19:24.756Z,10.87
2018-07-31T07:21:55.583Z,10.70
2018-07-31T07:24:26.492Z,11.10
2018-07-31T07:26:57.623Z,13.00
2018-07-31T07:29:28.622Z,11.17
2018-07-31T07:31:59.638Z,12.73
2018-07-31T07:34:30.566Z,13.20
2018-07-31T07:37:01.500Z,12.87
2018-07-31T07:39:32.368Z,11.67
2018-07-31T07:42:03.110Z,12.43
2018-07-31T07:44:34.016Z,12.10
2018-07-31T07:47:05.027Z,13.43
2018-07-31T07:49:35.377Z,11.70
2018-07-31T07:52:06.304Z,12.13
2018-07-31T07:54:37.042Z,11.80
2018-07-31T07:57:08.459Z,11.23
2018-07-31T07:59:39.458Z,11.47
2018-07-31T08:02:10.346Z,11.03
2018-07-31T08:04:41.402Z,10.47
2018-07-31T08:07:12.361Z,9.97
2018-07-31T08:09:43.272Z,10.63
2018-07-31T08:12:14.418Z,11.03
2018-07-31T08:14:45.336Z,10.40
2018-07-31T08:17:16.288Z,10.97
2018-07-31T08:19:47.312Z,11.07
2018-07-31T08:22:48.198Z,9.27
2018-07-31T08:25:19.259Z,8.67
2018-07-31T08:27:50.254Z,9.13
2018-07-31T08:30:27.263Z,8.93
2018-07-31T08:32:59.559Z,8.77
2018-07-31T08:35:30.402Z,8.60
2018-07-31T08:38:01.449Z,8.50
2018-07-31T08:40:32.244Z,7.63
2018-07-31T08:43:03.287Z,8.77
2018-07-31T08:45:34.363Z,7.87
2018-07-31T08:48:05.235Z,9.17
2018-07-31T08:50:35.731Z,8.43
2018-07-31T08:53:07.412Z,8.43
2018-07-31T08:55:38.411Z,8.80
2018-07-31T08:58:09.323Z,8.10
2018-07-31T09:00:40.338Z,9.17
2018-07-31T09:03:11.228Z,8.20
2018-07-31T09:05:42.082Z,8.57
2018-07-31T09:08:13.037Z,8.90
2018-07-31T09:10:44.199Z,8.57
2018-07-31T09:13:15.074Z,8.07
2018-07-31T09:15:46.056Z,8.63
2018-07-31T09:18:16.487Z,8.43
2018-07-31T09:20:47.388Z,8.87
2018-07-31T09:23:18.318Z,8.83
2018-07-31T09:25:49.360Z,8.77
2018-07-31T09:28:20.416Z,9.47
2018-07-31T09:30:56.512Z,8.93
2018-07-31T09:33:27.472Z,8.60
2018-07-31T09:35:58.575Z,8.40
2018-07-31T09:38:29.459Z,8.17
2018-07-31T09:41:00.779Z,8.67
2018-07-31T09:43:32.112Z,8.27
2018-07-31T09:46:02.896Z,9.77
2018-07-31T09:48:33.699Z,8.50
2018-07-31T09:51:04.540Z,8.63
2018-07-31T09:53:35.338Z,9.07
2018-07-31T09:56:06.267Z,9.00
2018-07-31T09:58:37.241Z,9.60
2018-07-31T10:01:13.223Z,8.70
2018-07-31T10:03:44.096Z,8.53
2018-07-31T10:06:14.941Z,8.27
2018-07-31T10:08:46.031Z,8.33
2018-07-31T10:11:16.940Z,9.00
2018-07-31T10:13:47.860Z,8.50
2018-07-31T10:16:18.891Z,8.53
2018-07-31T10:18:49.955Z,8.10
2018-07-31T10:21:21.108Z,8.13
2018-07-31T10:23:52.187Z,7.90
2018-07-31T10:31:02.287Z,8.50
2018-07-31T10:33:33.279Z,7.90
2018-07-31T10:36:04.255Z,8.30
2018-07-31T10:38:35.339Z,7.90
2018-07-31T10:41:06.295Z,8.53
2018-07-31T10:43:37.168Z,8.17
2018-07-31T10:46:08.086Z,8.73
2018-07-31T10:48:40.023Z,8.37
2018-07-31T10:51:10.892Z,8.70
2018-07-31T10:53:41.782Z,8.80
2018-07-31T10:56:12.731Z,8.43
2018-07-31T10:58:43.752Z,7.70
2018-07-31T11:01:14.696Z,7.53
2018-07-31T11:03:45.687Z,7.97
2018-07-31T11:06:16.562Z,7.90
2018-07-31T11:08:47.611Z,8.77
2018-07-31T11:11:18.440Z,8.67
2018-07-31T11:13:49.449Z,8.93
2018-07-31T11:16:20.306Z,8.97
2018-07-31T11:18:51.158Z,9.63
2018-07-31T11:21:21.985Z,8.37
2018-07-31T11:23:52.870Z,8.03
2018-07-31T11:26:23.897Z,8.23
2018-07-31T11:28:55.030Z,8.47
2018-07-31T11:31:26.284Z,9.33
2018-07-31T11:33:57.396Z,8.70
2018-07-31T11:36:28.271Z,8.90
2018-07-31T11:38:59.267Z,8.40
2018-07-31T11:41:30.251Z,8.97
2018-07-31T11:44:01.338Z,8.73
2018-07-31T11:46:32.139Z,8.47
2018-07-31T11:49:03.021Z,8.27
2018-07-31T11:51:33.939Z,8.20
2018-07-31T11:54:04.946Z,7.83
2018-07-31T11:56:35.802Z,8.40
2018-07-31T11:59:06.653Z,8.03
2018-07-31T12:01:37.713Z,8.50
2018-07-31T12:04:09.729Z,8.63
2018-07-31T12:06:40.809Z,8.90
2018-07-31T12:09:13.533Z,8.90
2018-07-31T12:11:45.134Z,9.43
2018-07-31T12:14:16.929Z,7.40
2018-07-31T12:16:48.800Z,5.47
2018-07-31T12:19:20.053Z,6.37
2018-07-31T12:21:51.139Z,9.30
2018-07-31T12:24:22.209Z,9.13
2018-07-31T12:26:53.385Z,6.27
2018-07-31T12:29:24.698Z,6.33
2018-07-31T12:31:55.817Z,7.13
2018-07-31T12:34:26.822Z,5.87
2018-07-31T12:36:57.702Z,6.90
2018-07-31T12:39:28.612Z,7.07
2018-07-31T12:41:59.668Z,8.50
2018-07-31T12:44:30.632Z,8.77
2018-07-31T12:47:01.780Z,8.03
2018-07-31T12:49:32.844Z,7.30
2018-07-31T12:52:03.883Z,7.73
2018-07-31T12:54:34.937Z,7.57
2018-07-31T12:57:06.220Z,8.43
2018-07-31T12:59:37.553Z,8.37
2018-07-31T13:02:08.909Z,8.40
2018-07-31T13:04:40.067Z,8.00
2018-07-31T13:07:11.276Z,8.40
2018-07-31T13:09:42.366Z,9.03
2018-07-31T13:12:13.470Z,9.43
2018-07-31T13:14:44.559Z,8.87
2018-07-31T13:17:15.705Z,9.73
2018-07-31T13:19:46.673Z,10.53
2018-07-31T13:22:17.827Z,9.70
2018-07-31T13:24:49.368Z,9.63
2018-07-31T13:27:20.634Z,9.33
2018-07-31T13:29:51.791Z,10.27
2018-07-31T13:32:22.904Z,9.97
2018-07-31T13:34:53.423Z,9.80
2018-07-31T13:37:24.290Z,8.93
2018-07-31T13:39:54.860Z,9.63
2018-07-31T13:42:25.769Z,10.23
2018-07-31T13:44:58.313Z,10.23
2018-07-31T13:47:29.390Z,10.10
2018-07-31T13:50:00.605Z,10.60
2018-07-31T13:52:31.625Z,9.03
2018-07-31T13:55:02.690Z,10.50
2018-07-31T13:57:33.942Z,9.77
2018-07-31T14:00:05.768Z,8.83
2018-07-31T14:02:36.863Z,9.93
2018-07-31T14:05:07.891Z,8.97
2018-07-31T14:07:38.907Z,8.73
2018-07-31T14:10:09.897Z,8.77
2018-07-31T14:12:41.217Z,8.30
2018-07-31T14:15:11.833Z,7.87
2018-07-31T14:17:43.912Z,8.20
2018-07-31T14:20:15.255Z,7.93
2018-07-31T14:22:46.414Z,7.90
2018-07-31T14:25:17.545Z,7.57
2018-07-31T14:27:48.686Z,6.93
2018-07-31T14:30:19.666Z,7.73
2018-07-31T14:32:50.587Z,6.77
2018-07-31T14:35:21.751Z,7.27
2018-07-31T14:37:52.772Z,7.30
2018-07-31T14:40:23.967Z,7.13
2018-07-31T14:42:55.216Z,6.20
2018-07-31T14:45:26.352Z,7.80
2018-07-31T14:47:57.431Z,6.17
2018-07-31T14:50:28.566Z,6.20
2018-07-31T14:52:59.595Z,6.47
2018-07-31T14:55:30.738Z,7.20
2018-07-31T16:48:32.696Z,7.20
2018-07-31T16:51:04.657Z,6.70
2018-07-31T16:53:36.206Z,7.23
2018-07-31T16:56:09.251Z,6.17
2018-07-31T16:58:42.407Z,6.73
2018-07-31T17:01:14.472Z,7.90
2018-07-31T17:03:46.426Z,8.00
2018-07-31T17:06:18.719Z,7.00
2018-07-31T17:08:51.055Z,6.97
2018-07-31T17:11:23.393Z,7.53
2018-07-31T17:13:56.182Z,6.67
2018-07-31T17:16:28.327Z,7.60
2018-07-31T17:19:00.766Z,7.17
2018-07-31T17:21:32.971Z,7.27
2018-07-31T17:24:05.121Z,7.23
2018-07-31T17:26:37.210Z,7.43
2018-07-31T17:29:09.598Z,6.20
2018-07-31T17:34:48.729Z,8.40
2018-07-31T17:37:21.258Z,7.13
2018-07-31T17:39:53.893Z,7.30
2018-07-31T17:42:26.328Z,6.60
2018-07-31T17:44:58.553Z,6.80
2018-07-31T17:47:31.181Z,6.90
2018-07-31T17:50:03.742Z,7.87
2018-07-31T17:52:36.699Z,7.90
2018-07-31T17:55:10.041Z,7.60
2018-07-31T17:57:42.013Z,7.33
2018-07-31T18:00:14.497Z,6.70
2018-07-31T18:02:48.212Z,9.20
2018-07-31T18:05:20.742Z,7.33
2018-07-31T18:07:53.981Z,8.07
2018-07-31T18:10:26.469Z,8.80
2018-07-31T18:12:59.369Z,7.83
2018-07-31T18:15:32.587Z,8.50
2018-07-31T18:18:05.529Z,8.83
2018-07-31T18:20:38.121Z,8.10
2018-07-31T18:23:10.675Z,7.43
2018-07-31T18:25:43.760Z,8.30
2018-07-31T18:28:16.749Z,8.20
2018-07-31T18:30:50.015Z,8.70
2018-07-31T18:33:25.852Z,7.93
2018-07-31T18:36:00.904Z,8.57
2018-07-31T18:38:36.449Z,10.20
2018-07-31T18:41:14.834Z,9.17
2018-07-31T18:43:47.851Z,10.53
2018-07-31T18:46:22.239Z,9.73
2018-07-31T18:48:55.439Z,10.30
2018-07-31T18:51:28.684Z,9.57
2018-07-31T18:54:02.949Z,8.83
2018-07-31T18:56:36.449Z,8.53
2018-07-31T18:59:10.939Z,10.70
2018-07-31T19:01:45.675Z,9.47
2018-07-31T19:04:22.885Z,9.50
2018-07-31T19:06:56.204Z,8.10
2018-07-31T19:09:30.440Z,8.90
2018-07-31T19:12:05.929Z,9.03
2018-07-31T19:14:40.528Z,9.00
2018-07-31T19:17:14.408Z,8.10
2018-07-31T19:19:49.747Z,7.97
2018-07-31T19:22:23.809Z,8.17
2018-07-31T19:24:57.818Z,8.67
2018-07-31T19:27:30.945Z,8.30
2018-07-31T19:30:04.445Z,7.87
2018-07-31T19:32:38.339Z,8.70
2018-07-31T19:35:11.951Z,8.97
2018-07-31T19:37:47.682Z,8.20
2018-07-31T19:40:23.235Z,8.47
2018-07-31T19:42:57.575Z,8.70
2018-07-31T19:45:31.849Z,8.17
2018-07-31T19:48:04.692Z,8.57
2018-07-31T19:50:37.629Z,8.37
2018-07-31T19:53:10.650Z,8.63
2018-07-31T19:55:45.285Z,8.73
2018-07-31T19:58:22.804Z,8.23
2018-07-31T20:00:59.320Z,8.50
2018-07-31T20:03:37.551Z,9.03
2018-07-31T20:06:10.938Z,8.93
2018-07-31T20:08:55.681Z,9.23
2018-07-31T20:11:30.348Z,9.13
2018-07-31T20:14:05.728Z,8.90
2018-07-31T20:16:39.865Z,9.30
2018-07-31T20:19:17.865Z,8.40
2018-07-31T20:21:54.042Z,7.57
2018-07-31T20:24:30.253Z,8.87
2018-07-31T20:27:05.031Z,8.40
2018-07-31T20:29:39.628Z,8.50
2018-07-31T20:32:14.125Z,8.50
2018-07-31T20:34:48.428Z,8.80
2018-07-31T20:37:22.797Z,9.07
2018-07-31T20:39:58.850Z,7.80
2018-07-31T20:42:37.464Z,8.43
2018-07-31T20:45:17.278Z,8.23
2018-07-31T20:47:54.761Z,8.70
2018-07-31T20:50:29.387Z,8.03
2018-07-31T20:53:03.972Z,7.60
2018-07-31T20:55:37.625Z,8.07
2018-07-31T20:58:11.846Z,8.00
2018-07-31T21:00:45.079Z,7.80
2018-07-31T21:03:21.859Z,7.20
2018-07-31T21:05:55.305Z,8.47
2018-07-31T21:08:28.448Z,8.37
2018-07-31T21:11:06.619Z,8.60
2018-07-31T21:13:42.490Z,8.13
2018-07-31T21:16:16.057Z,8.37
2018-07-31T21:18:49.971Z,8.10
2018-07-31T21:21:22.636Z,8.70
2018-07-31T21:23:57.093Z,8.13
2018-07-31T21:26:30.694Z,8.33
2018-07-31T21:29:05.075Z,8.80
2018-07-31T21:31:40.494Z,8.30
2018-07-31T21:34:14.927Z,9.50
2018-07-31T21:36:51.599Z,8.93
2018-07-31T21:39:25.389Z,9.30
2018-07-31T21:42:00.602Z,9.07
2018-07-31T21:44:34.012Z,8.23
2018-07-31T21:47:07.966Z,8.73
2018-07-31T21:49:42.832Z,8.23
2018-07-31T21:52:17.250Z,8.67
2018-07-31T21:54:53.892Z,8.67
2018-07-31T21:57:28.262Z,8.40
2018-07-31T22:00:05.740Z,7.97
2018-07-31T22:02:39.077Z,8.83
2018-07-31T22:05:12.524Z,9.93
2018-07-31T22:07:45.379Z,8.57
2018-07-31T22:10:20.896Z,9.43
2018-07-31T22:12:54.789Z,8.67
2018-07-31T22:15:27.908Z,9.47
2018-07-31T22:18:01.711Z,9.07
2018-07-31T22:20:34.786Z,8.67
2018-07-31T22:23:08.217Z,9.03
2018-07-31T22:25:41.769Z,9.27
2018-07-31T22:28:15.179Z,9.17
2018-07-31T22:30:48.027Z,8.90
2018-07-31T22:33:21.092Z,9.27
2018-07-31T22:35:53.963Z,9.77
2018-07-31T22:38:27.113Z,9.17
2018-07-31T22:40:59.636Z,9.03
2018-07-31T22:43:32.879Z,8.37
2018-07-31T22:46:06.566Z,9.33
2018-07-31T22:48:39.622Z,9.37
2018-07-31T22:51:13.388Z,9.10
2018-07-31T22:53:45.867Z,9.23
2018-07-31T22:56:19.291Z,8.47
2018-07-31T22:58:54.736Z,8.73
2018-07-31T23:01:27.975Z,8.47
2018-07-31T23:04:03.184Z,8.60
2018-07-31T23:06:36.730Z,8.60
2018-07-31T23:09:13.659Z,8.80
2018-07-31T23:11:46.578Z,9.00
2018-07-31T23:14:20.806Z,9.67
2018-07-31T23:16:55.155Z,8.57
2018-07-31T23:19:29.103Z,8.73
2018-07-31T23:22:02.445Z,9.23
2018-07-31T23:24:35.533Z,8.90
2018-07-31T23:27:07.620Z,9.80
2018-07-31T23:29:41.194Z,8.57
2018-07-31T23:32:15.002Z,9.10
2018-07-31T23:34:48.337Z,9.43
2018-07-31T23:37:21.624Z,9.90
2018-07-31T23:39:54.722Z,9.03
2018-07-31T23:42:27.514Z,9.93
2018-07-31T23:45:00.817Z,9.37
2018-07-31T23:47:35.297Z,9.50
2018-07-31T23:50:08.630Z,9.37
2018-07-31T23:52:41.682Z,9.63
2018-07-31T23:55:14.703Z,8.50
2018-07-31T23:57:54.210Z,9.30
